Time;durP1;ratioP1;P1;durP2;ratioP2;P2;SDS_P1;SDS_P2;PMS_P1;PMS_P2;Temp;Humidity;BMP_temperature;BMP_pressure;BME280_temperature;BME280_humidity;BME280_pressure;Samples;Min_cycle;Max_cycle;Signal;HPM_P1;HPM_P2
2022/06/22 00:00:28;;;;;;;14.30;8.40;;;12.90;99.90;;;;;;5115340;28;20048;-70
2022/06/22 00:02:55;;;;;;;17.33;8.65;;;13.80;99.80;;;;;;5115242;28;20522;-70
2022/06/22 00:05:27;;;;;;;18.27;8.60;;;13.80;99.90;;;;;;5115512;28;20108;-70
2022/06/22 00:07:57;;;;;;;10.70;7.60;;;14.00;99.90;;;;;;5115176;28;20051;-70
2022/06/22 00:10:45;;;;;;;14.07;8.63;;;14.50;99.90;;;;;;5115203;28;20526;-70
2022/06/22 00:13:18;;;;;;;15.10;8.70;;;13.90;99.90;;;;;;5115431;28;20365;-70
2022/06/22 00:15:51;;;;;;;13.25;8.18;;;14.90;99.90;;;;;;5115350;28;20031;-71
2022/06/22 00:18:41;;;;;;;11.45;8.15;;;12.80;99.90;;;;;;5114661;28;20111;-70
2022/06/22 00:21:19;;;;;;;18.35;9.25;;;13.80;99.90;;;;;;5115056;28;20040;-70
2022/06/22 00:23:47;;;;;;;14.68;8.55;;;;;;;;;;5114907;28;20047;-70
2022/06/22 00:26:25;;;;;;;12.50;7.55;;;13.00;99.90;;;;;;5115025;28;20126;-70
2022/06/22 00:29:00;;;;;;;16.65;8.30;;;13.70;99.90;;;;;;5114876;28;20078;-70
2022/06/22 00:31:42;;;;;;;14.25;8.45;;;13.70;99.90;;;;;;5115085;28;20146;-70
2022/06/22 00:34:11;;;;;;;14.48;7.95;;;12.70;99.90;;;;;;5114679;28;20043;-70
2022/06/22 00:36:54;;;;;;;14.15;8.07;;;13.60;99.90;;;;;;5113663;28;20043;-70
2022/06/22 00:39:30;;;;;;;12.75;8.25;;;;;;;;;;5114481;28;20516;-70
2022/06/22 00:42:21;;;;;;;13.52;8.77;;;13.10;99.90;;;;;;5114465;28;20035;-70
2022/06/22 00:44:47;;;;;;;10.63;7.88;;;;;;;;;;5114442;28;20039;-70
2022/06/22 00:47:38;;;;;;;19.63;8.60;;;13.50;99.90;;;;;;5097499;28;20122;-70
2022/06/22 00:50:10;;;;;;;11.73;7.85;;;;;;;;;;5114418;28;20593;-70
2022/06/22 00:52:52;;;;;;;15.93;9.35;;;13.20;99.90;;;;;;5114692;28;20042;-71
2022/06/22 00:55:40;;;;;;;15.13;8.35;;;13.30;99.90;;;;;;5097515;28;20084;-70
2022/06/22 00:58:18;;;;;;;16.45;8.63;;;12.40;99.90;;;;;;5114159;28;20057;-70
2022/06/22 01:01:01;;;;;;;17.55;8.63;;;13.30;99.90;;;;;;5114230;28;20042;-70
2022/06/22 01:03:59;;;;;;;14.55;9.20;;;13.10;99.90;;;;;;5114484;28;20036;-70
2022/06/22 01:06:39;;;;;;;15.05;9.90;;;13.90;99.90;;;;;;5109376;28;20498;-70
2022/06/22 01:09:05;;;;;;;19.63;9.57;;;;;;;;;;5096947;28;20071;-70
2022/06/22 01:14:58;;;;;;;14.45;8.57;;;13.20;99.90;;;;;;5113938;28;20054;-70
2022/06/22 01:17:41;;;;;;;13.98;9.05;;;13.20;99.90;;;;;;5113676;28;20059;-70
2022/06/22 01:20:20;;;;;;;17.88;10.93;;;12.40;99.90;;;;;;5113822;28;20044;-70
2022/06/22 01:22:52;;;;;;;15.07;9.50;;;;;;;;;;5113976;28;20042;-70
2022/06/22 01:25:43;;;;;;;15.15;9.93;;;13.80;99.90;;;;;;5114021;28;20165;-70
2022/06/22 01:28:11;;;;;;;16.67;10.70;;;13.00;99.90;;;;;;5113587;28;20054;-70
2022/06/22 01:30:40;;;;;;;18.25;10.13;;;13.00;99.90;;;;;;5113644;28;20052;-70
2022/06/22 01:33:17;;;;;;;16.58;9.80;;;13.10;99.90;;;;;;5113817;28;20059;-70
2022/06/22 01:35:43;;;;;;;19.45;10.65;;;14.10;99.90;;;;;;5113565;28;20126;-70
2022/06/22 01:38:18;;;;;;;16.67;10.18;;;13.20;99.90;;;;;;5113624;28;20048;-70
2022/06/22 01:40:45;;;;;;;15.27;9.18;;;;;;;;;;5096646;28;20101;-70
2022/06/22 01:43:34;;;;;;;16.38;9.70;;;12.90;99.90;;;;;;5113254;28;20071;-70
2022/06/22 01:46:10;;;;;;;17.45;10.32;;;13.10;99.90;;;;;;5096792;28;20093;-70
2022/06/22 01:49:03;;;;;;;14.23;9.40;;;12.80;99.90;;;;;;5095876;28;20119;-70
2022/06/22 01:51:36;;;;;;;15.02;9.20;;;;;;;;;;5113146;28;20058;-70
2022/06/22 01:54:18;;;;;;;14.82;8.55;;;12.90;99.90;;;;;;5113324;28;20521;-70
2022/06/22 01:56:58;;;;;;;12.38;8.00;;;12.70;99.90;;;;;;5113144;28;20036;-70
2022/06/22 01:59:47;;;;;;;14.20;8.23;;;12.70;99.90;;;;;;5113204;28;20112;-70
2022/06/22 02:02:30;;;;;;;13.45;8.85;;;12.60;99.90;;;;;;5113149;28;20108;-70
2022/06/22 02:05:13;;;;;;;13.70;8.90;;;;;;;;;;5095999;28;20144;-70
2022/06/22 02:08:15;;;;;;;19.50;10.02;;;12.80;99.90;;;;;;5112954;28;20510;-70
2022/06/22 02:10:52;;;;;;;14.60;9.20;;;13.20;99.90;;;;;;5108995;28;20062;-70
2022/06/22 02:13:47;;;;;;;13.13;9.35;;;12.70;99.90;;;;;;5096075;28;20047;-70
2022/06/22 02:16:16;;;;;;;11.63;8.98;;;;;;;;;;5112760;28;20075;-70
2022/06/22 02:18:50;;;;;;;17.45;8.65;;;12.50;99.90;;;;;;5112519;28;20052;-70
2022/06/22 02:21:26;;;;;;;17.08;9.63;;;12.60;99.90;;;;;;5113130;28;20048;-71
2022/06/22 02:24:04;;;;;;;12.68;8.70;;;12.20;99.90;;;;;;5095731;28;20028;-70
2022/06/22 02:27:00;;;;;;;12.90;9.00;;;13.70;99.90;;;;;;5112753;28;20483;-70
2022/06/22 02:29:30;;;;;;;15.77;9.77;;;12.50;99.90;;;;;;5112707;28;20044;-70
2022/06/22 02:32:03;;;;;;;14.65;8.98;;;12.80;99.90;;;;;;5095892;28;20039;-70
2022/06/22 02:34:31;;;;;;;13.48;9.05;;;12.50;99.90;;;;;;5112875;28;20035;-70
2022/06/22 02:36:59;;;;;;;15.18;9.77;;;12.60;99.90;;;;;;5112673;28;20497;-70
2022/06/22 02:39:25;;;;;;;18.02;9.88;;;12.40;99.90;;;;;;5095670;28;20062;-70
2022/06/22 02:44:39;;;;;;;18.23;10.13;;;;;;;;;;5112522;28;20136;-70
2022/06/22 02:47:11;;;;;;;15.77;10.38;;;;;;;;;;5112738;28;20075;-70
2022/06/22 02:49:42;;;;;;;16.58;10.27;;;12.40;99.90;;;;;;5112397;28;20043;-70
2022/06/22 02:52:12;;;;;;;15.57;9.90;;;12.20;99.90;;;;;;5095426;28;20039;-70
2022/06/22 02:54:55;;;;;;;15.65;9.40;;;12.50;99.90;;;;;;5112418;28;20082;-70
2022/06/22 02:57:33;;;;;;;15.52;9.18;;;12.40;99.90;;;;;;5112424;28;20043;-70
2022/06/22 02:59:59;;;;;;;14.68;8.82;;;;;;;;;;5097318;28;20117;-71
2022/06/22 03:02:26;;;;;;;14.73;9.35;;;12.20;99.90;;;;;;5116790;28;20387;-70
2022/06/22 03:04:54;;;;;;;13.20;9.18;;;12.30;99.90;;;;;;5116485;28;20123;-70
2022/06/22 03:07:20;;;;;;;18.77;9.35;;;;;;;;;;5116288;28;20112;-70
2022/06/22 03:09:48;;;;;;;14.48;8.93;;;12.30;99.90;;;;;;5116515;28;20130;-70
2022/06/22 03:12:14;;;;;;;18.08;10.43;;;;;;;;;;5116390;28;20483;-70
2022/06/22 03:14:49;;;;;;;14.23;9.35;;;;;;;;;;5116195;28;20036;-70
2022/06/22 03:17:18;;;;;;;15.32;10.40;;;11.40;99.90;;;;;;5116091;28;20055;-70
2022/06/22 03:20:00;;;;;;;18.05;9.85;;;11.60;99.90;;;;;;5116200;28;20506;-70
2022/06/22 03:22:46;;;;;;;18.20;10.48;;;12.20;99.90;;;;;;5116147;28;20071;-70
2022/06/22 03:25:30;;;;;;;15.57;10.77;;;12.90;99.90;;;;;;5116140;28;20044;-70
2022/06/22 03:28:05;;;;;;;20.70;11.00;;;12.40;99.90;;;;;;5116323;28;20080;-70
2022/06/22 03:30:39;;;;;;;15.60;9.88;;;12.40;99.90;;;;;;5115793;28;20484;-71
2022/06/22 03:33:12;;;;;;;15.10;9.95;;;11.50;99.90;;;;;;5116279;28;20425;-71
2022/06/22 03:35:47;;;;;;;15.77;9.88;;;12.20;99.90;;;;;;5115988;28;20553;-70
2022/06/22 03:38:20;;;;;;;15.15;9.40;;;12.40;99.90;;;;;;5115910;28;20078;-70
2022/06/22 03:40:54;;;;;;;16.90;9.60;;;12.10;99.90;;;;;;5115795;28;20071;-70
2022/06/22 03:43:28;;;;;;;25.35;10.25;;;12.00;99.90;;;;;;5115772;28;20110;-70
2022/06/22 03:46:22;;;;;;;16.45;10.90;;;12.10;99.90;;;;;;5115711;28;20048;-70
2022/06/22 03:49:01;;;;;;;17.60;10.38;;;12.30;99.90;;;;;;5107431;28;20066;-70
2022/06/22 03:52:00;;;;;;;17.10;10.20;;;12.20;99.90;;;;;;5115569;28;20483;-70
2022/06/22 03:54:37;;;;;;;16.52;10.25;;;11.80;99.90;;;;;;5115420;28;20483;-70
2022/06/22 03:57:07;;;;;;;14.57;9.82;;;12.30;99.90;;;;;;5115659;28;20047;-70
2022/06/22 03:59:38;;;;;;;17.73;9.95;;;;;;;;;;5115332;28;20046;-73
2022/06/22 04:02:04;;;;;;;22.08;11.65;;;;;;;;;;5115220;28;20487;-73
2022/06/22 04:04:31;;;;;;;16.83;11.88;;;12.20;99.90;;;;;;5081383;28;20122;-73
2022/06/22 04:06:58;;;;;;;21.33;12.10;;;;;;;;;;5098254;28;20476;-73
2022/06/22 04:09:26;;;;;;;20.08;11.00;;;12.40;99.90;;;;;;5115085;28;20501;-73
2022/06/22 04:11:52;;;;;;;16.30;11.05;;;;;;;;;;5114766;28;20077;-73
2022/06/22 04:14:32;;;;;;;20.65;12.23;;;11.80;99.90;;;;;;5115063;28;20043;-73
2022/06/22 04:17:07;;;;;;;24.67;12.55;;;12.80;99.90;;;;;;5098071;28;20074;-73
2022/06/22 04:19:56;;;;;;;21.38;12.02;;;;;;;;;;5114801;28;20122;-74
2022/06/22 04:22:27;;;;;;;14.57;10.35;;;12.40;99.90;;;;;;5114879;28;20071;-73
2022/06/22 04:25:05;;;;;;;22.45;13.35;;;13.50;99.90;;;;;;5114989;28;20479;-73
2022/06/22 04:27:35;;;;;;;21.52;12.95;;;12.50;99.90;;;;;;5115175;28;20487;-73
2022/06/22 04:30:04;;;;;;;20.00;12.98;;;;;;;;;;5114900;28;20086;-73
2022/06/22 04:32:58;;;;;;;21.13;12.57;;;12.20;99.90;;;;;;5097978;28;20047;-73
2022/06/22 04:35:24;;;;;;;20.55;12.80;;;;;;;;;;5105708;28;20047;-73
2022/06/22 04:37:59;;;;;;;19.50;11.63;;;12.70;99.90;;;;;;5097774;28;20082;-73
2022/06/22 04:40:29;;;;;;;24.30;12.70;;;12.50;99.90;;;;;;5098159;28;20434;-73
2022/06/22 04:42:59;;;;;;;21.33;11.10;;;12.60;99.90;;;;;;5114603;28;20078;-73
2022/06/22 04:45:29;;;;;;;19.98;11.60;;;12.70;99.90;;;;;;5114865;28;20039;-73
2022/06/22 04:48:05;;;;;;;20.88;11.10;;;12.60;99.90;;;;;;5114593;28;20035;-73
2022/06/22 04:50:31;;;;;;;18.30;11.65;;;;;;;;;;5114629;28;20086;-73
2022/06/22 04:52:59;;;;;;;22.55;12.15;;;12.90;99.90;;;;;;5114408;28;20046;-73
2022/06/22 04:55:27;;;;;;;20.63;11.65;;;;;;;;;;5114333;28;20075;-73
2022/06/22 04:57:59;;;;;;;17.63;10.70;;;13.00;99.90;;;;;;5097244;28;20050;-73
2022/06/22 05:00:28;;;;;;;26.77;11.30;;;12.70;99.90;;;;;;5114265;28;20048;-73
2022/06/22 05:03:03;;;;;;;17.08;11.18;;;12.80;99.90;;;;;;5097341;28;20122;-72
2022/06/22 05:05:31;;;;;;;22.33;11.85;;;13.10;99.90;;;;;;5114507;28;20148;-73
2022/06/22 05:08:02;;;;;;;19.02;12.32;;;12.60;99.90;;;;;;5097112;28;20091;-73
2022/06/22 05:10:47;;;;;;;18.17;11.80;;;13.00;99.90;;;;;;5113851;28;20036;-73
2022/06/22 05:13:20;;;;;;;15.75;11.57;;;13.10;99.90;;;;;;5113975;28;20488;-73
2022/06/22 05:15:49;;;;;;;24.70;12.45;;;13.00;99.90;;;;;;5114052;28;20096;-73
2022/06/22 05:18:21;;;;;;;17.25;12.00;;;13.20;99.90;;;;;;5131010;27;20058;-73
2022/06/22 05:21:19;;;;;;;17.23;11.98;;;14.00;99.90;;;;;;5117447;27;20102;-73
2022/06/22 05:23:52;;;;;;;19.00;12.20;;;13.40;99.90;;;;;;5116886;27;20095;-73
2022/06/22 05:26:22;;;;;;;17.67;12.13;;;13.20;99.90;;;;;;5117229;27;20043;-73
2022/06/22 05:29:05;;;;;;;18.35;12.38;;;13.50;99.90;;;;;;5117146;27;20047;-73
2022/06/22 05:31:38;;;;;;;26.88;14.35;;;13.40;99.90;;;;;;5117293;27;20043;-73
2022/06/22 05:34:09;;;;;;;22.50;13.35;;;14.30;99.90;;;;;;5117163;27;20047;-73
2022/06/22 05:36:40;;;;;;;30.08;12.75;;;13.40;99.90;;;;;;5117092;27;20047;-72
2022/06/22 05:39:07;;;;;;;18.70;11.85;;;;;;;;;;5117021;27;20046;-74
2022/06/22 05:41:37;;;;;;;19.92;9.93;;;13.70;99.90;;;;;;5116874;27;20051;-73
2022/06/22 05:44:11;;;;;;;18.25;9.85;;;13.10;99.90;;;;;;5116713;27;20407;-73
2022/06/22 05:46:39;;;;;;;16.13;8.70;;;14.20;99.90;;;;;;5116751;27;20038;-73
2022/06/22 05:49:15;;;;;;;21.00;9.13;;;14.10;99.90;;;;;;5116931;27;20039;-73
2022/06/22 05:51:41;;;;;;;18.95;8.95;;;;;;;;;;5116659;27;20047;-73
2022/06/22 05:54:17;;;;;;;12.95;6.95;;;13.60;99.90;;;;;;5116484;27;20156;-73
2022/06/22 05:56:52;;;;;;;18.63;7.43;;;13.40;99.90;;;;;;5116537;27;20050;-73
2022/06/22 05:59:25;;;;;;;14.75;8.07;;;13.70;99.90;;;;;;5135079;27;20043;-73
2022/06/22 06:02:08;;;;;;;15.82;8.18;;;14.50;99.90;;;;;;5116792;27;20039;-73
2022/06/22 06:04:48;;;;;;;14.43;7.75;;;13.70;99.90;;;;;;5116597;27;20043;-73
2022/06/22 06:07:42;;;;;;;14.38;7.22;;;15.10;99.90;;;;;;5116351;27;20035;-73
2022/06/22 06:10:20;;;;;;;14.10;7.22;;;15.20;99.90;;;;;;5099367;27;20075;-72
2022/06/22 06:12:56;;;;;;;18.45;8.38;;;14.80;99.90;;;;;;5116315;27;20047;-73
2022/06/22 06:15:22;;;;;;;13.13;6.78;;;;;;;;;;5116282;27;20043;-73
2022/06/22 06:17:57;;;;;;;16.80;6.85;;;15.00;99.90;;;;;;5134334;27;20487;-73
2022/06/22 06:20:34;;;;;;;13.73;6.63;;;15.10;99.90;;;;;;5116114;28;20059;-73
2022/06/22 06:23:08;;;;;;;14.10;6.40;;;15.20;99.90;;;;;;5099210;27;20482;-73
2022/06/22 06:29:11;;;;;;;18.63;7.63;;;15.10;99.90;;;;;;5115983;27;20054;-73
2022/06/22 06:32:10;;;;;;;14.35;7.72;;;15.20;99.90;;;;;;5067138;27;20070;-74
2022/06/22 06:34:42;;;;;;;16.48;8.40;;;15.20;99.90;;;;;;5115887;27;20047;-73
2022/06/22 06:37:14;;;;;;;20.90;9.15;;;16.00;99.90;;;;;;5115931;27;20047;-74
2022/06/22 06:39:45;;;;;;;13.25;8.52;;;15.40;99.90;;;;;;5115961;28;20047;-70
2022/06/22 06:42:32;;;;;;;16.77;8.18;;;16.10;99.90;;;;;;5116177;28;20054;-70
2022/06/22 06:45:01;;;;;;;22.55;9.95;;;15.40;99.90;;;;;;5115858;28;20469;-70
2022/06/22 06:47:35;;;;;;;20.60;10.02;;;14.90;99.90;;;;;;5099173;28;20057;-70
2022/06/22 06:50:04;;;;;;;20.63;8.93;;;15.50;99.90;;;;;;5115900;28;20096;-70
2022/06/22 06:52:48;;;;;;;15.77;8.88;;;;;;;;;;5115875;28;20035;-69
2022/06/22 06:55:16;;;;;;;18.05;9.40;;;;;;;;;;5116185;28;20058;-70
2022/06/22 06:57:57;;;;;;;14.57;6.88;;;15.60;99.90;;;;;;5115784;28;20046;-69
2022/06/22 07:00:23;;;;;;;16.33;8.27;;;16.00;99.90;;;;;;5115530;28;20085;-70
2022/06/22 07:02:49;;;;;;;13.82;7.20;;;;;;;;;;5115565;28;20532;-70
2022/06/22 07:05:19;;;;;;;15.35;6.82;;;15.80;99.90;;;;;;5115936;28;20039;-73
2022/06/22 07:08:08;;;;;;;16.38;6.38;;;16.00;99.90;;;;;;5115730;28;20035;-73
2022/06/22 07:10:34;;;;;;;16.15;6.75;;;;;;;;;;5099071;28;20046;-73
2022/06/22 07:13:04;;;;;;;17.90;6.65;;;15.90;99.90;;;;;;5115593;28;20092;-73
2022/06/22 07:15:41;;;;;;;15.10;6.13;;;15.80;99.90;;;;;;5115994;28;20107;-73
2022/06/22 07:18:23;;;;;;;19.20;6.28;;;16.80;99.90;;;;;;5111858;28;20059;-73
2022/06/22 07:20:56;;;;;;;14.50;5.68;;;16.10;99.90;;;;;;5112284;28;20044;-73
2022/06/22 07:23:31;;;;;;;12.88;5.13;;;16.00;99.90;;;;;;5112107;28;20401;-73
2022/06/22 07:26:02;;;;;;;10.80;5.18;;;16.20;99.90;;;;;;5112336;28;20388;-72
2022/06/22 07:28:28;;;;;;;12.52;4.97;;;;;;;;;;5112393;28;20425;-73
2022/06/22 07:31:08;;;;;;;13.32;4.65;;;16.20;99.90;;;;;;5112129;28;20126;-73
2022/06/22 07:33:40;;;;;;;13.63;4.60;;;16.10;99.80;;;;;;5112010;28;20124;-73
2022/06/22 07:36:22;;;;;;;14.27;4.35;;;16.20;99.80;;;;;;5111929;28;20131;-73
2022/06/22 07:39:06;;;;;;;13.65;5.18;;;16.40;98.90;;;;;;5112024;28;20036;-73
2022/06/22 07:41:34;;;;;;;17.83;5.40;;;17.00;99.90;;;;;;5111824;28;20488;-70
2022/06/22 07:44:04;;;;;;;13.68;5.32;;;16.40;99.20;;;;;;5094972;28;20040;-70
2022/06/22 07:46:48;;;;;;;10.18;4.63;;;17.30;99.90;;;;;;5114821;28;20080;-70
2022/06/22 07:49:29;;;;;;;12.20;4.93;;;16.50;99.50;;;;;;5098782;28;20040;-70
2022/06/22 07:51:57;;;;;;;9.80;4.63;;;16.80;99.00;;;;;;5115617;28;20051;-70
2022/06/22 07:54:26;;;;;;;14.50;4.80;;;16.60;99.90;;;;;;5115781;28;20047;-70
2022/06/22 07:57:01;;;;;;;14.82;5.15;;;;;;;;;;5115734;28;20043;-70
2022/06/22 07:59:39;;;;;;;11.88;5.55;;;16.00;99.90;;;;;;5115352;28;20481;-70
2022/06/22 08:02:17;;;;;;;9.15;4.35;;;16.70;98.60;;;;;;5098675;28;20039;-70
2022/06/22 08:04:57;;;;;;;16.00;4.80;;;17.30;99.90;;;;;;5098909;28;20419;-70
2022/06/22 08:07:28;;;;;;;13.18;4.38;;;17.80;99.90;;;;;;5115353;28;20499;-70
2022/06/22 08:10:19;;;;;;;13.48;4.97;;;17.10;97.80;;;;;;5115306;28;20131;-70
2022/06/22 08:12:48;;;;;;;13.35;4.93;;;;;;;;;;5098204;28;20083;-70
2022/06/22 08:15:17;;;;;;;13.10;5.43;;;16.40;99.90;;;;;;5098434;28;20372;-70
2022/06/22 08:17:47;;;;;;;15.52;5.35;;;17.30;97.30;;;;;;5115184;28;20423;-70
2022/06/22 08:20:20;;;;;;;14.75;5.47;;;17.50;99.90;;;;;;5115121;28;20051;-71
2022/06/22 08:22:48;;;;;;;11.93;5.55;;;17.20;97.00;;;;;;5114903;28;20040;-70
2022/06/22 08:25:18;;;;;;;13.02;6.13;;;17.30;97.50;;;;;;5114946;28;20048;-70
2022/06/22 08:27:45;;;;;;;15.93;6.93;;;;;;;;;;5115019;28;20118;-70
2022/06/22 08:30:14;;;;;;;15.07;6.40;;;17.50;96.50;;;;;;5114832;28;20553;-70
2022/06/22 08:32:57;;;;;;;13.38;5.72;;;17.50;97.00;;;;;;5114865;28;20036;-70
2022/06/22 08:35:25;;;;;;;9.00;5.38;;;;;;;;;;5114744;28;20048;-70
2022/06/22 08:38:02;;;;;;;24.40;6.90;;;17.80;99.90;;;;;;5114697;28;20092;-70
2022/06/22 08:40:52;;;;;;;12.32;7.03;;;18.10;99.90;;;;;;5114490;28;20373;-70
2022/06/22 08:43:57;;;;;;;11.35;5.65;;;18.10;96.80;;;;;;5114567;28;20093;-70
2022/06/22 08:46:23;;;;;;;13.85;5.32;;;;;;;;;;5114601;28;20101;-70
2022/06/22 08:49:06;;;;;;;16.20;6.05;;;18.80;99.70;;;;;;5114304;28;20039;-70
2022/06/22 08:52:08;;;;;;;14.50;7.22;;;18.30;96.40;;;;;;5114687;28;20035;-70
2022/06/22 08:55:00;;;;;;;15.23;6.45;;;18.50;95.70;;;;;;5114520;28;20200;-70
2022/06/22 08:57:43;;;;;;;17.40;6.00;;;18.50;94.40;;;;;;5113196;28;20554;-70
2022/06/22 09:00:13;;;;;;;15.50;6.60;;;;;;;;;;5114246;28;20391;-70
2022/06/22 09:03:11;;;;;;;14.75;6.28;;;18.50;95.40;;;;;;5114458;28;20035;-70
2022/06/22 09:05:57;;;;;;;20.98;8.02;;;18.70;98.90;;;;;;5114214;28;20043;-70
2022/06/22 09:08:50;;;;;;;18.50;7.55;;;18.60;95.40;;;;;;5114011;28;20048;-70
2022/06/22 09:11:35;;;;;;;14.90;6.85;;;18.70;95.50;;;;;;5113965;28;20049;-70
2022/06/22 09:14:23;;;;;;;14.98;6.03;;;18.80;95.10;;;;;;5096959;28;20035;-70
2022/06/22 09:16:49;;;;;;;18.85;7.50;;;;;;;;;;5100143;27;20055;-70
2022/06/22 09:19:27;;;;;;;17.15;6.57;;;19.00;93.90;;;;;;5117329;27;20053;-70
2022/06/22 09:21:56;;;;;;;19.27;6.40;;;;;;;;;;5117579;27;20038;-71
2022/06/22 09:24:47;;;;;;;13.23;5.40;;;19.30;94.60;;;;;;5117540;27;20039;-70
2022/06/22 09:27:40;;;;;;;14.02;6.10;;;19.50;94.60;;;;;;5100071;27;20428;-70
2022/06/22 09:30:22;;;;;;;16.58;6.05;;;19.50;97.80;;;;;;5116993;27;20399;-70
2022/06/22 09:33:06;;;;;;;;;;;19.20;94.80;;;;;;5117489;27;20051;-70
2022/06/22 09:35:49;;;;;;;16.50;5.35;;;19.40;93.90;;;;;;5100023;27;19936;-70
2022/06/22 09:38:33;;;;;;;10.38;4.75;;;19.50;92.60;;;;;;5117136;27;20046;-70
2022/06/22 09:41:17;;;;;;;15.00;5.43;;;19.50;97.00;;;;;;5116859;27;20538;-70
2022/06/22 09:43:50;;;;;;;14.60;6.03;;;19.50;93.30;;;;;;5117194;27;20027;-70
2022/06/22 09:46:19;;;;;;;13.45;5.25;;;18.90;96.60;;;;;;5116905;27;20114;-70
2022/06/22 09:48:48;;;;;;;10.80;4.78;;;19.00;96.70;;;;;;5116723;27;20541;-70
2022/06/22 09:51:32;;;;;;;19.67;5.28;;;20.00;92.10;;;;;;5116953;27;20057;-70
2022/06/22 09:57:44;;;;;;;13.07;5.75;;;19.90;92.70;;;;;;5116658;27;20051;-71
2022/06/22 10:00:20;;;;;;;12.13;5.75;;;20.60;96.00;;;;;;5116537;27;20038;-71
2022/06/22 10:02:46;;;;;;;14.05;5.22;;;;;;;;;;5135048;27;20031;-71
2022/06/22 10:05:50;;;;;;;14.40;6.25;;;19.10;95.80;;;;;;5134846;27;20035;-71
2022/06/22 10:08:15;;;;;;;14.20;5.68;;;19.50;95.80;;;;;;5116323;27;20042;-71
2022/06/22 10:10:42;;;;;;;18.25;7.13;;;;;;;;;;5116525;27;20467;-71
2022/06/22 10:13:44;;;;;;;20.98;6.32;;;20.80;95.50;;;;;;5116313;27;20042;-71
2022/06/22 10:16:35;;;;;;;17.10;6.15;;;20.30;91.00;;;;;;5116231;27;20079;-71
2022/06/22 10:19:10;;;;;;;15.98;5.93;;;20.30;92.70;;;;;;5098984;27;20522;-71
2022/06/22 10:21:36;;;;;;;16.45;6.15;;;;;;;;;;5099125;27;20498;-71
2022/06/22 10:24:37;;;;;;;11.77;5.72;;;20.80;95.40;;;;;;5099127;27;20042;-71
2022/06/22 10:27:15;;;;;;;10.75;4.95;;;21.50;92.90;;;;;;5116152;27;20039;-71
2022/06/22 10:29:55;;;;;;;14.50;6.40;;;20.70;94.60;;;;;;5116377;27;20039;-71
2022/06/22 10:32:27;;;;;;;16.20;6.45;;;20.90;94.60;;;;;;5116278;27;20050;-71
2022/06/22 10:35:05;;;;;;;14.98;5.60;;;21.70;94.40;;;;;;5116369;27;20099;-71
2022/06/22 10:38:08;;;;;;;13.25;5.53;;;20.90;92.50;;;;;;5115940;27;20386;-71
2022/06/22 10:46:58;;;;;;;16.83;6.85;;;21.70;94.40;;;;;;5115909;28;20047;-71
2022/06/22 10:49:47;;;;;;;15.88;6.28;;;20.90;94.40;;;;;;5116217;28;20053;-71
2022/06/22 10:52:25;;;;;;;16.17;7.05;;;21.20;94.50;;;;;;5116095;28;20051;-71
2022/06/22 10:55:15;;;;;;;14.45;6.32;;;21.70;94.80;;;;;;5115856;28;20043;-71
2022/06/22 10:58:32;;;;;;;15.75;6.90;;;21.40;94.50;;;;;;5116134;28;20043;-71
2022/06/22 11:01:26;;;;;;;18.80;7.53;;;21.00;93.00;;;;;;5043990;28;20055;-71
2022/06/22 11:04:04;;;;;;;25.27;7.20;;;21.80;94.80;;;;;;5116074;28;20043;-71
2022/06/22 11:06:29;;;;;;;16.70;6.88;;;21.10;95.10;;;;;;5115618;28;20540;-71
2022/06/22 11:09:17;;;;;;;21.08;7.65;;;20.90;91.60;;;;;;5115635;28;20043;-71
2022/06/22 11:11:59;;;;;;;13.82;6.20;;;21.20;95.00;;;;;;5115718;28;20045;-71
2022/06/22 11:14:50;;;;;;;15.60;6.40;;;21.20;94.10;;;;;;5115800;28;20038;-71
2022/06/22 11:17:45;;;;;;;15.60;6.38;;;20.90;93.70;;;;;;5115581;28;20095;-71
2022/06/22 11:20:20;;;;;;;16.60;6.30;;;21.00;88.20;;;;;;5116238;27;20051;-71
2022/06/22 11:22:54;;;;;;;13.40;5.95;;;21.70;93.80;;;;;;5120105;27;20102;-71
2022/06/22 11:32:14;;;;;;;10.38;5.97;;;21.20;93.40;;;;;;5119425;27;20043;-71
2022/06/22 11:34:40;;;;;;;15.82;6.85;;;;;;;;;;5119748;27;20046;-71
2022/06/22 11:37:30;;;;;;;14.50;6.05;;;21.80;88.20;;;;;;5102437;27;20042;-71
2022/06/22 11:40:02;;;;;;;17.25;6.55;;;21.90;89.40;;;;;;5119188;27;20131;-71
2022/06/22 11:42:37;;;;;;;16.35;6.43;;;22.50;93.10;;;;;;5119236;27;20064;-71
2022/06/22 11:48:15;;;;;;;16.85;6.32;;;21.80;93.50;;;;;;5119223;27;20043;-71
2022/06/22 11:51:19;;;;;;;17.52;6.75;;;22.00;93.40;;;;;;5119383;27;20043;-71
2022/06/22 11:54:03;;;;;;;16.30;6.63;;;22.20;93.60;;;;;;5119182;27;20038;-71
2022/06/22 11:56:40;;;;;;;12.63;6.68;;;21.50;88.70;;;;;;5101901;27;20043;-71
2022/06/22 11:59:25;;;;;;;11.48;6.70;;;22.10;92.80;;;;;;5101642;27;20107;-72
2022/06/22 12:02:36;;;;;;;18.33;6.97;;;22.10;89.70;;;;;;5101663;27;20091;-72
2022/06/22 12:05:24;;;;;;;22.08;6.63;;;22.90;92.60;;;;;;5071911;27;20050;-72
2022/06/22 12:08:11;;;;;;;19.27;7.35;;;22.00;91.60;;;;;;5118928;27;20044;-72
2022/06/22 12:10:59;;;;;;;15.23;6.50;;;23.00;92.20;;;;;;5118622;27;20090;-71
2022/06/22 12:13:35;;;;;;;19.85;8.60;;;23.00;92.40;;;;;;5118802;27;20047;-72
2022/06/22 12:16:27;;;;;;;20.17;8.48;;;22.80;92.50;;;;;;5101650;27;20043;-72
2022/06/22 12:19:12;;;;;;;16.33;7.97;;;22.30;86.70;;;;;;5118180;27;20063;-71
2022/06/22 12:21:42;;;;;;;17.55;8.02;;;22.30;92.60;;;;;;5101420;27;20043;-71
2022/06/22 12:24:36;;;;;;;20.63;8.55;;;21.60;92.10;;;;;;5101307;27;20126;-72
2022/06/22 12:27:31;;;;;;;21.17;8.15;;;22.40;92.60;;;;;;5118268;27;20039;-72
2022/06/22 12:30:25;;;;;;;18.92;7.78;;;21.80;85.90;;;;;;5118358;27;20100;-72
2022/06/22 12:33:18;;;;;;;17.02;7.97;;;21.60;92.60;;;;;;5118064;27;20043;-72
2022/06/22 12:35:46;;;;;;;17.42;7.50;;;23.10;92.80;;;;;;5118294;27;20498;-72
2022/06/22 12:38:22;;;;;;;21.95;7.88;;;23.00;92.80;;;;;;5118155;27;20091;-72
2022/06/22 12:41:01;;;;;;;22.08;8.82;;;22.60;86.90;;;;;;5101346;27;20096;-72
2022/06/22 12:43:30;;;;;;;23.55;8.48;;;22.10;92.10;;;;;;5118230;27;20039;-71
2022/06/22 12:46:24;;;;;;;22.50;9.02;;;22.00;92.10;;;;;;5101363;27;20054;-71
2022/06/22 12:49:08;;;;;;;18.63;9.07;;;22.40;92.50;;;;;;5117869;27;20555;-71
2022/06/22 12:51:51;;;;;;;22.70;8.70;;;23.40;92.70;;;;;;5117897;27;20529;-71
2022/06/22 12:54:28;;;;;;;20.98;10.10;;;22.90;92.50;;;;;;5100676;27;20122;-72
2022/06/22 12:57:10;;;;;;;20.20;10.00;;;23.30;92.70;;;;;;5117774;27;20047;-72
2022/06/22 12:59:41;;;;;;;17.88;9.93;;;23.30;93.00;;;;;;5100833;27;20039;-71
2022/06/22 13:02:14;;;;;;;19.20;11.00;;;22.60;93.30;;;;;;5117634;27;20050;-72
2022/06/22 13:04:42;;;;;;;24.13;11.75;;;21.90;93.50;;;;;;5117613;27;20046;-72
2022/06/22 13:07:12;;;;;;;22.55;11.52;;;22.60;93.40;;;;;;5117604;27;20122;-72
2022/06/22 13:09:39;;;;;;;32.40;11.23;;;23.10;93.50;;;;;;5117378;27;20483;-72
2022/06/22 13:12:24;;;;;;;27.63;12.48;;;21.80;93.10;;;;;;5117716;27;20043;-71
2022/06/22 13:14:57;;;;;;;28.80;11.75;;;22.90;93.50;;;;;;5117583;27;20046;-71
2022/06/22 13:17:41;;;;;;;20.60;9.98;;;21.70;93.60;;;;;;5117065;27;20497;-72
2022/06/22 13:20:44;;;;;;;22.75;10.98;;;22.60;93.40;;;;;;5117241;27;20130;-72
2022/06/22 13:23:31;;;;;;;23.30;11.15;;;21.90;88.20;;;;;;5116965;27;20398;-71
2022/06/22 13:25:57;;;;;;;22.77;11.10;;;22.10;93.70;;;;;;5117002;27;20035;-72
2022/06/22 13:28:42;;;;;;;23.63;11.38;;;22.00;93.50;;;;;;5117121;27;20043;-72
2022/06/22 13:31:25;;;;;;;19.00;10.23;;;21.80;90.70;;;;;;5117095;27;20047;-71
2022/06/22 13:34:03;;;;;;;18.38;9.45;;;21.70;93.80;;;;;;5100231;27;20123;-71
2022/06/22 13:37:09;;;;;;;21.73;10.60;;;22.30;93.30;;;;;;5100123;27;20042;-71
2022/06/22 13:40:01;;;;;;;23.13;10.80;;;22.40;93.40;;;;;;5116912;27;20486;-71
2022/06/22 13:42:36;;;;;;;;;;;22.10;88.60;;;;;;5117044;27;20039;-71
2022/06/22 13:45:31;;;;;;;24.45;9.98;;;21.30;93.70;;;;;;5099722;27;19915;-71
2022/06/22 13:48:09;;;;;;;21.60;10.27;;;21.20;93.20;;;;;;5116766;27;20499;-71
2022/06/22 13:51:14;;;;;;;22.55;9.73;;;22.30;93.60;;;;;;5099796;27;20047;-71
2022/06/22 13:54:02;;;;;;;21.52;11.15;;;21.20;93.10;;;;;;5135152;27;20043;-71
2022/06/22 13:57:01;;;;;;;23.23;10.20;;;22.50;93.30;;;;;;5116653;27;20043;-72
2022/06/22 13:59:57;;;;;;;21.88;10.23;;;22.40;93.50;;;;;;5116781;27;20050;-71
2022/06/22 14:02:45;;;;;;;20.42;9.27;;;22.10;93.70;;;;;;5116717;27;20041;-72
2022/06/22 14:05:37;;;;;;;25.23;9.38;;;21.80;89.50;;;;;;5135024;27;20127;-72
2022/06/22 14:08:10;;;;;;;;;;;21.80;88.80;;;;;;5117046;27;20039;-72
2022/06/22 14:10:58;;;;;;;20.05;10.07;;;22.00;89.10;;;;;;5116742;27;19916;-71
2022/06/22 14:13:33;;;;;;;23.52;8.70;;;22.10;90.50;;;;;;5134837;27;20070;-72
2022/06/22 14:16:09;;;;;;;19.52;8.18;;;22.10;89.70;;;;;;5116488;27;20039;-72